Time;durP1;ratioP1;P1;durP2;ratioP2;P2;SDS_P1;SDS_P2;PMS_P1;PMS_P2;Temp;Humidity;BMP_temperature;BMP_pressure;BME280_temperature;BME280_humidity;BME280_pressure;Samples;Min_cycle;Max_cycle;Signal;HPM_P1;HPM_P2
2022/05/20 00:02:14;;;;;;;7.13;5.93;;;19.10;99.90;;;;;;4918819;28;20537;-89
2022/05/20 00:04:40;;;;;;;6.23;5.23;;;19.10;99.90;;;;;;4930079;28;20922;-88
2022/05/20 00:07:06;;;;;;;6.00;5.50;;;19.10;99.90;;;;;;4946124;28;20248;-88
2022/05/20 00:09:32;;;;;;;6.27;5.77;;;19.10;99.90;;;;;;4926210;28;20724;-88
2022/05/20 00:11:57;;;;;;;6.03;5.10;;;19.10;99.90;;;;;;4927259;28;20187;-88
2022/05/20 00:14:23;;;;;;;8.80;5.97;;;19.10;99.90;;;;;;4951788;28;21111;-89
2022/05/20 00:16:52;;;;;;;5.93;5.43;;;19.00;99.90;;;;;;4938031;28;20665;-89
2022/05/20 00:19:17;;;;;;;7.80;5.80;;;19.00;99.90;;;;;;4951345;28;20187;-88
2022/05/20 00:21:45;;;;;;;6.63;6.13;;;18.90;99.90;;;;;;4921450;28;20486;-89
2022/05/20 00:24:11;;;;;;;6.00;5.40;;;18.90;99.90;;;;;;4914442;28;20179;-89
2022/05/20 00:26:36;;;;;;;6.20;5.60;;;19.00;99.90;;;;;;4890586;28;1216585;-88
2022/05/20 00:29:02;;;;;;;6.90;6.17;;;19.00;99.90;;;;;;4922198;28;20608;-89
2022/05/20 00:31:30;;;;;;;6.60;6.10;;;19.00;99.90;;;;;;4934725;28;20186;-89
2022/05/20 00:33:59;;;;;;;6.97;6.00;;;19.00;99.90;;;;;;4959948;28;20310;-89
2022/05/20 00:36:27;;;;;;;5.67;5.17;;;19.10;99.90;;;;;;4955090;28;20510;-89
2022/05/20 00:38:52;;;;;;;6.20;5.70;;;19.00;99.90;;;;;;4941305;28;21492;-90
2022/05/20 00:41:18;;;;;;;7.40;6.70;;;19.00;99.90;;;;;;4924189;28;21042;-88
2022/05/20 00:43:49;;;;;;;8.40;6.37;;;18.90;99.90;;;;;;4940236;28;20265;-89
2022/05/20 00:46:22;;;;;;;8.40;6.50;;;18.90;99.90;;;;;;4947291;28;20195;-89
2022/05/20 00:49:04;;;;;;;6.70;6.00;;;18.80;99.90;;;;;;4957669;28;20829;-89
2022/05/20 00:51:35;;;;;;;6.37;5.77;;;18.80;99.90;;;;;;4936436;28;20816;-89
2022/05/20 00:54:24;;;;;;;6.70;6.10;;;18.80;99.90;;;;;;4915353;28;20442;-89
2022/05/20 00:56:57;;;;;;;6.37;5.80;;;18.80;99.90;;;;;;4916351;28;21876;-89
2022/05/20 00:59:27;;;;;;;6.53;5.97;;;18.80;99.90;;;;;;4915136;28;20498;-89
2022/05/20 01:01:55;;;;;;;7.30;6.43;;;18.80;99.90;;;;;;4921522;28;20581;-89
2022/05/20 01:04:22;;;;;;;6.80;6.20;;;18.90;99.90;;;;;;4919325;28;20448;-89
2022/05/20 01:06:48;;;;;;;6.50;5.80;;;18.80;99.90;;;;;;4936719;28;21047;-89
2022/05/20 01:09:14;;;;;;;6.57;6.10;;;18.70;99.90;;;;;;4934601;28;20434;-90
2022/05/20 01:11:39;;;;;;;6.47;5.87;;;18.80;99.90;;;;;;4939767;28;21124;-90
2022/05/20 01:14:07;;;;;;;7.50;6.10;;;18.70;99.90;;;;;;4935572;28;20195;-88
2022/05/20 01:16:33;;;;;;;7.10;6.30;;;18.70;99.90;;;;;;4934789;28;20625;-89
2022/05/20 01:19:01;;;;;;;7.37;6.67;;;18.80;99.90;;;;;;4953377;28;20564;-90
2022/05/20 01:21:26;;;;;;;7.30;6.80;;;18.70;99.90;;;;;;4911689;28;21018;-89
2022/05/20 01:23:59;;;;;;;7.07;6.57;;;18.70;99.90;;;;;;4952119;28;20453;-89
2022/05/20 01:26:24;;;;;;;7.00;6.30;;;18.70;99.90;;;;;;4937918;28;20211;-88
2022/05/20 01:28:50;;;;;;;6.13;5.63;;;18.70;99.90;;;;;;4914026;28;20496;-89
2022/05/20 01:31:16;;;;;;;6.90;6.30;;;18.60;99.90;;;;;;4915237;28;20311;-89
2022/05/20 01:33:44;;;;;;;7.60;6.90;;;18.60;99.90;;;;;;4926640;28;20206;-89
2022/05/20 01:36:15;;;;;;;8.33;6.40;;;18.60;99.90;;;;;;4934325;28;20191;-88
2022/05/20 01:38:41;;;;;;;7.20;6.43;;;18.60;99.90;;;;;;4899290;28;20452;-88
2022/05/20 01:41:10;;;;;;;6.93;6.33;;;18.60;99.90;;;;;;4919306;28;20821;-88
2022/05/20 01:43:51;;;;;;;9.37;7.87;;;18.50;99.90;;;;;;4917422;28;20479;-89
2022/05/20 01:46:35;;;;;;;6.77;6.10;;;18.50;99.90;;;;;;4915753;28;20482;-89
2022/05/20 01:49:27;;;;;;;8.40;6.63;;;18.50;99.90;;;;;;4946067;28;20447;-89
2022/05/20 01:52:03;;;;;;;7.50;6.80;;;18.50;99.90;;;;;;4940903;28;20442;-88
2022/05/20 01:54:52;;;;;;;7.40;6.80;;;18.40;99.90;;;;;;4921715;28;20501;-89
2022/05/20 01:58:05;;;;;;;7.40;6.83;;;18.30;99.90;;;;;;4926450;28;20450;-89
2022/05/20 02:00:34;;;;;;;7.47;6.77;;;18.30;99.90;;;;;;4902416;28;20444;-89
2022/05/20 02:03:28;;;;;;;7.53;6.67;;;18.20;99.90;;;;;;4918941;28;20510;-90
2022/05/20 02:06:00;;;;;;;6.90;6.20;;;18.10;99.90;;;;;;4919566;28;20517;-89
2022/05/20 02:08:39;;;;;;;9.17;7.10;;;18.10;99.90;;;;;;4915491;28;20501;-88
2022/05/20 02:11:15;;;;;;;7.77;6.17;;;18.10;99.90;;;;;;4909754;28;20485;-89
2022/05/20 02:13:46;;;;;;;7.10;6.40;;;18.10;99.90;;;;;;4929877;28;21232;-89
2022/05/20 02:16:34;;;;;;;7.17;6.50;;;18.20;99.90;;;;;;4923469;28;20451;-88
2022/05/20 02:19:08;;;;;;;7.47;6.67;;;18.30;99.90;;;;;;4943226;28;20455;-88
2022/05/20 02:21:45;;;;;;;7.40;6.70;;;18.40;99.90;;;;;;4913135;28;20492;-89
2022/05/20 02:24:18;;;;;;;9.50;7.33;;;18.40;99.90;;;;;;4932094;28;20442;-89
2022/05/20 02:26:51;;;;;;;6.73;6.13;;;18.40;99.90;;;;;;4942663;28;21052;-90
2022/05/20 02:29:21;;;;;;;7.13;6.43;;;18.40;99.90;;;;;;4951127;28;20446;-90
2022/05/20 02:32:14;;;;;;;8.57;7.13;;;18.40;99.90;;;;;;4952017;28;20446;-89
2022/05/20 02:35:00;;;;;;;8.73;7.90;;;18.40;99.90;;;;;;4922163;28;20531;-90
2022/05/20 02:37:32;;;;;;;7.50;6.90;;;18.40;99.90;;;;;;4932114;28;20438;-89
2022/05/20 02:40:02;;;;;;;6.43;5.80;;;18.40;99.90;;;;;;4919533;28;20458;-89
2022/05/20 02:42:28;;;;;;;9.67;6.07;;;18.30;99.90;;;;;;4913448;28;21025;-90
2022/05/20 02:45:03;;;;;;;7.33;6.60;;;18.20;99.90;;;;;;4923016;28;20991;-89
2022/05/20 02:47:37;;;;;;;7.97;6.67;;;18.10;99.90;;;;;;4922275;28;20454;-90
2022/05/20 02:50:11;;;;;;;11.00;6.70;;;18.00;99.90;;;;;;4946160;28;20435;-89
2022/05/20 02:52:37;;;;;;;7.10;6.40;;;18.00;99.90;;;;;;4934980;28;20471;-90
2022/05/20 02:55:05;;;;;;;8.20;6.70;;;18.00;99.90;;;;;;4913094;28;21723;-90
2022/05/20 02:57:30;;;;;;;7.33;6.60;;;18.00;99.90;;;;;;4935142;28;20446;-89
2022/05/20 03:05:24;;;;;;;7.40;6.80;;;17.80;99.90;;;;;;4925252;28;20462;-90
2022/05/20 03:07:50;;;;;;;9.53;6.97;;;17.70;99.90;;;;;;4943343;28;21120;-90
2022/05/20 03:10:15;;;;;;;6.80;6.13;;;17.70;99.90;;;;;;4912933;28;20187;-89
2022/05/20 03:12:44;;;;;;;7.10;6.50;;;17.60;99.90;;;;;;4920588;28;20187;-89
2022/05/20 03:15:13;;;;;;;7.33;6.73;;;17.50;99.90;;;;;;4929467;28;20771;-89
2022/05/20 03:17:42;;;;;;;7.83;7.00;;;17.50;99.90;;;;;;4926231;28;20474;-89
2022/05/20 03:20:08;;;;;;;7.90;7.20;;;17.50;99.90;;;;;;4932343;28;20438;-89
2022/05/20 03:22:35;;;;;;;7.43;6.83;;;17.50;99.90;;;;;;4932675;28;20486;-89
2022/05/20 03:25:01;;;;;;;10.30;7.63;;;17.50;99.90;;;;;;4925310;28;21049;-89
2022/05/20 03:27:27;;;;;;;8.37;7.50;;;17.50;99.90;;;;;;4958342;28;20458;-90
2022/05/20 03:29:53;;;;;;;7.33;6.57;;;17.60;99.90;;;;;;4954584;28;20274;-89
2022/05/20 03:32:21;;;;;;;8.40;7.60;;;17.70;99.90;;;;;;4945342;28;20451;-89
2022/05/20 03:34:46;;;;;;;7.50;6.80;;;17.90;99.90;;;;;;4931011;28;20255;-89
2022/05/20 03:37:12;;;;;;;7.70;7.10;;;17.90;99.90;;;;;;4949341;28;20522;-89
2022/05/20 03:39:57;;;;;;;7.57;6.90;;;17.90;99.90;;;;;;4925826;28;20190;-89
2022/05/20 03:42:23;;;;;;;7.70;7.00;;;17.90;99.90;;;;;;4944925;28;20289;-89
2022/05/20 03:44:55;;;;;;;8.60;6.70;;;18.00;99.90;;;;;;4942864;28;20494;-89
2022/05/20 03:47:20;;;;;;;7.67;6.97;;;18.00;99.90;;;;;;4945065;28;20590;-89
2022/05/20 03:49:46;;;;;;;7.80;7.10;;;18.00;99.90;;;;;;4931395;28;20546;-89
2022/05/20 03:52:13;;;;;;;6.70;5.80;;;18.00;99.90;;;;;;4950235;28;20548;-90
2022/05/20 03:54:39;;;;;;;7.07;6.57;;;18.00;99.90;;;;;;4923087;28;20212;-90
2022/05/20 03:57:05;;;;;;;7.33;6.73;;;18.00;99.90;;;;;;4928766;28;20595;-90
2022/05/20 03:59:35;;;;;;;9.03;8.23;;;18.00;99.90;;;;;;4941374;28;20443;-90
2022/05/20 04:02:02;;;;;;;8.43;7.50;;;18.00;99.90;;;;;;4924975;28;20482;-89
2022/05/20 04:04:31;;;;;;;8.97;8.17;;;18.10;99.90;;;;;;4928633;28;20427;-91
2022/05/20 04:06:58;;;;;;;8.27;7.57;;;18.10;99.90;;;;;;4932876;28;22145;-91
2022/05/20 04:09:23;;;;;;;9.23;7.87;;;18.10;99.90;;;;;;4917889;28;20486;-91
2022/05/20 04:11:54;;;;;;;8.60;7.40;;;18.20;99.90;;;;;;4928639;28;20790;-90
2022/05/20 04:14:20;;;;;;;9.40;8.33;;;18.20;99.90;;;;;;4941171;28;20186;-90
2022/05/20 04:16:46;;;;;;;12.60;8.07;;;18.20;99.90;;;;;;4942036;28;20447;-91
2022/05/20 04:19:11;;;;;;;9.10;8.20;;;18.30;99.90;;;;;;4939424;28;20297;-90
2022/05/20 04:21:38;;;;;;;8.70;7.90;;;18.30;99.90;;;;;;4946745;28;20215;-90
2022/05/20 04:24:04;;;;;;;9.63;8.00;;;18.20;99.90;;;;;;4950495;28;20194;-90
2022/05/20 04:26:29;;;;;;;8.97;8.17;;;18.20;99.90;;;;;;4948728;28;20458;-89
2022/05/20 04:28:55;;;;;;;8.63;7.93;;;18.30;99.90;;;;;;4934401;28;20214;-90
2022/05/20 04:31:21;;;;;;;8.27;7.57;;;18.20;99.90;;;;;;4948341;28;20195;-89
2022/05/20 04:33:47;;;;;;;10.00;7.80;;;18.10;99.90;;;;;;4955655;28;20179;-88
2022/05/20 04:36:12;;;;;;;9.47;8.20;;;18.10;99.90;;;;;;4950671;28;20437;-89
2022/05/20 04:38:38;;;;;;;9.67;8.77;;;18.20;99.90;;;;;;4938512;28;20182;-88
2022/05/20 04:49:42;;;;;;;9.20;8.37;;;18.20;99.90;;;;;;4921504;28;20439;-88
2022/05/20 04:52:08;;;;;;;8.70;8.00;;;18.10;99.90;;;;;;4960250;28;20987;-89
2022/05/20 04:54:51;;;;;;;8.80;8.00;;;18.30;99.90;;;;;;4940668;28;20458;-88
2022/05/20 04:57:26;;;;;;;9.60;8.70;;;18.20;99.90;;;;;;4942383;28;20576;-88
2022/05/20 04:59:56;;;;;;;9.67;8.40;;;18.30;99.90;;;;;;4945221;28;20453;-88
2022/05/20 05:02:21;;;;;;;9.77;8.77;;;18.30;99.90;;;;;;4938504;28;20570;-88
2022/05/20 05:04:47;;;;;;;9.40;8.50;;;18.20;99.90;;;;;;4939996;28;21084;-88
2022/05/20 05:07:13;;;;;;;9.80;8.90;;;18.20;99.90;;;;;;4932917;28;20191;-88
2022/05/20 05:09:40;;;;;;;10.27;8.87;;;18.20;99.90;;;;;;4946649;28;20262;-88
2022/05/20 05:12:08;;;;;;;9.90;9.00;;;18.30;99.90;;;;;;4947373;28;20199;-87
2022/05/20 05:14:38;;;;;;;9.50;8.70;;;18.30;99.90;;;;;;4940798;28;20438;-88
2022/05/20 05:17:09;;;;;;;9.70;8.80;;;18.30;99.90;;;;;;4916645;28;20442;-88
2022/05/20 05:19:39;;;;;;;11.80;9.23;;;18.30;99.90;;;;;;4927330;28;20538;-89
2022/05/20 05:22:07;;;;;;;9.83;8.90;;;18.40;99.90;;;;;;4930005;28;20493;-88
2022/05/20 05:24:33;;;;;;;10.43;9.47;;;18.50;99.90;;;;;;4943376;28;20494;-87
2022/05/20 05:26:59;;;;;;;10.30;9.27;;;18.50;99.90;;;;;;4953094;28;20466;-88
2022/05/20 05:29:25;;;;;;;9.83;8.90;;;18.60;99.90;;;;;;4957494;28;20841;-88
2022/05/20 05:31:51;;;;;;;9.60;8.67;;;18.70;99.90;;;;;;4937651;28;20192;-89
2022/05/20 05:34:17;;;;;;;9.03;8.20;;;19.00;99.90;;;;;;4945072;28;20983;-88
2022/05/20 05:37:22;;;;;;;9.93;8.97;;;19.00;99.90;;;;;;4943060;28;20198;-89
2022/05/20 05:40:09;;;;;;;9.37;8.50;;;19.10;99.90;;;;;;4944716;28;20494;-89
2022/05/20 05:43:03;;;;;;;8.60;7.90;;;19.20;99.90;;;;;;4944194;28;20474;-89
2022/05/20 05:45:44;;;;;;;9.40;8.13;;;19.20;99.90;;;;;;4924896;28;20430;-89
2022/05/20 05:48:27;;;;;;;9.10;8.30;;;19.30;99.90;;;;;;4932135;28;20473;-90
2022/05/20 05:50:57;;;;;;;9.20;8.30;;;19.40;99.90;;;;;;4934137;28;20505;-90
2022/05/20 05:53:27;;;;;;;8.57;7.80;;;19.50;99.90;;;;;;4927483;28;20453;-89
2022/05/20 05:56:04;;;;;;;8.10;7.40;;;19.60;99.90;;;;;;4935984;28;21038;-91
2022/05/20 05:58:30;;;;;;;9.20;8.30;;;19.80;99.90;;;;;;4945393;28;20448;-90
2022/05/20 06:01:04;;;;;;;10.43;7.50;;;19.90;99.90;;;;;;4946000;28;20536;-90
2022/05/20 06:03:35;;;;;;;9.43;8.63;;;19.90;99.90;;;;;;4953181;28;20455;-90
2022/05/20 06:06:07;;;;;;;8.60;7.80;;;20.00;99.90;;;;;;4945770;28;21021;-91
2022/05/20 06:08:32;;;;;;;7.47;6.73;;;20.10;99.90;;;;;;4946423;28;20943;-91
2022/05/20 06:11:00;;;;;;;14.10;8.40;;;20.20;99.90;;;;;;4948228;28;20538;-91
2022/05/20 06:13:29;;;;;;;8.00;7.33;;;20.30;99.90;;;;;;4968465;28;20218;-91
2022/05/20 06:15:55;;;;;;;9.73;7.20;;;20.40;99.90;;;;;;4944053;28;20458;-89
2022/05/20 06:18:22;;;;;;;8.97;8.00;;;20.50;99.90;;;;;;4946323;28;20541;-91
2022/05/20 06:20:48;;;;;;;8.73;7.93;;;20.60;99.90;;;;;;4961672;28;20512;-90
2022/05/20 06:23:14;;;;;;;8.13;7.40;;;20.60;99.90;;;;;;4963424;28;20992;-89
2022/05/20 06:25:42;;;;;;;8.90;8.10;;;20.50;99.90;;;;;;4931631;28;20443;-90
2022/05/20 06:28:13;;;;;;;7.10;6.43;;;20.70;99.90;;;;;;4962220;28;20446;-89
2022/05/20 06:30:42;;;;;;;7.67;6.97;;;20.80;99.90;;;;;;4961223;28;20473;-90
2022/05/20 06:33:08;;;;;;;9.30;7.50;;;21.00;99.90;;;;;;4947228;28;20454;-90
2022/05/20 06:41:43;;;;;;;9.60;7.13;;;21.40;99.90;;;;;;4939796;28;20852;-92
2022/05/20 06:44:18;;;;;;;7.77;6.27;;;21.60;99.90;;;;;;4946566;28;20468;-92
2022/05/20 06:46:46;;;;;;;6.70;6.20;;;21.70;99.90;;;;;;4941253;28;20487;-95
2022/05/20 06:49:23;;;;;;;7.43;6.73;;;21.60;99.90;;;;;;4949218;28;20782;-93
2022/05/20 06:51:50;;;;;;;6.93;6.43;;;21.80;99.90;;;;;;4948126;28;20426;-96
2022/05/20 06:54:16;;;;;;;7.50;6.90;;;21.80;99.90;;;;;;4967807;28;20537;-92
2022/05/20 07:46:28;;;;;;;6.83;5.80;;;23.70;99.90;;;;;;4933325;29;20499;-93
2022/05/20 07:48:54;;;;;;;6.30;5.80;;;23.70;99.90;;;;;;4948506;28;20537;-94
2022/05/20 07:54:53;;;;;;;7.63;6.33;;;24.00;99.90;;;;;;4935597;29;20218;-94
2022/05/20 07:57:18;;;;;;;6.47;5.90;;;24.00;99.90;;;;;;4940770;28;20581;-93
2022/05/20 07:59:48;;;;;;;7.10;6.40;;;24.20;99.90;;;;;;4948632;28;20469;-94
2022/05/20 08:02:22;;;;;;;6.77;6.20;;;24.30;99.90;;;;;;4942500;28;20215;-92
2022/05/20 08:04:53;;;;;;;8.03;7.23;;;24.40;99.90;;;;;;4934104;29;20443;-94
2022/05/20 08:07:40;;;;;;;6.73;6.13;;;24.70;99.90;;;;;;4933345;29;20447;-94
2022/05/20 08:10:11;;;;;;;6.50;5.90;;;24.80;99.90;;;;;;4937942;29;20447;-93
2022/05/20 08:12:36;;;;;;;6.60;5.53;;;24.90;99.90;;;;;;4939054;29;20423;-94
2022/05/20 08:15:02;;;;;;;6.57;6.07;;;24.80;99.90;;;;;;4952547;28;20466;-92
2022/05/20 08:17:29;;;;;;;6.60;6.00;;;24.90;99.90;;;;;;4951582;28;20254;-93
2022/05/20 08:19:55;;;;;;;6.13;5.53;;;25.20;99.90;;;;;;4951299;28;20191;-93
2022/05/20 08:22:22;;;;;;;6.37;5.60;;;25.40;99.90;;;;;;4952728;28;20486;-94
2022/05/20 08:24:53;;;;;;;6.37;5.87;;;25.40;98.20;;;;;;4933704;29;20440;-92
2022/05/20 08:27:21;;;;;;;6.60;6.00;;;25.30;98.80;;;;;;4950261;28;20452;-92
2022/05/20 08:29:47;;;;;;;6.23;5.73;;;25.40;99.00;;;;;;4948679;28;20431;-93
2022/05/20 08:32:14;;;;;;;6.37;5.80;;;25.40;99.20;;;;;;4934956;29;20448;-92
2022/05/20 08:34:39;;;;;;;6.30;5.80;;;25.60;99.30;;;;;;4950765;28;20436;-92
2022/05/20 08:37:05;;;;;;;6.40;5.90;;;25.50;98.20;;;;;;4950790;28;20456;-93
2022/05/20 08:39:31;;;;;;;6.33;5.73;;;25.50;99.00;;;;;;4951878;28;20739;-93
2022/05/20 08:41:57;;;;;;;6.77;6.27;;;25.80;99.00;;;;;;4936487;29;20765;-92
2022/05/20 08:44:24;;;;;;;6.90;6.20;;;25.80;97.90;;;;;;4954820;28;20207;-93
2022/05/20 08:46:50;;;;;;;7.27;6.40;;;26.10;98.30;;;;;;4952979;28;20438;-92
2022/05/20 08:49:19;;;;;;;6.73;6.13;;;26.20;97.10;;;;;;4953901;28;21053;-92
2022/05/20 08:51:53;;;;;;;8.00;6.07;;;25.90;97.20;;;;;;4952415;28;20430;-92
2022/05/20 08:54:19;;;;;;;6.73;6.23;;;25.80;97.80;;;;;;4931869;29;20451;-93
2022/05/20 08:56:46;;;;;;;6.10;5.60;;;25.70;97.80;;;;;;4937308;29;20440;-93
2022/05/20 08:59:17;;;;;;;5.90;5.40;;;26.00;96.70;;;;;;4955369;28;20448;-93
2022/05/20 09:01:46;;;;;;;6.23;5.73;;;26.40;96.90;;;;;;4955904;28;20459;-93
2022/05/20 09:04:14;;;;;;;6.10;5.60;;;26.60;95.80;;;;;;4959277;28;20479;-92
2022/05/20 09:07:00;;;;;;;6.77;5.20;;;26.90;95.90;;;;;;4957474;28;20503;-93
2022/05/20 09:09:30;;;;;;;6.20;5.67;;;26.90;94.50;;;;;;4937789;29;20466;-93
2022/05/20 09:11:57;;;;;;;6.00;5.50;;;27.00;94.30;;;;;;4943504;29;20424;-94
2022/05/20 09:17:14;;;;;;;5.77;5.37;;;27.40;93.20;;;;;;4940811;29;20539;-92
2022/05/20 09:20:05;;;;;;;6.90;5.17;;;27.60;91.20;;;;;;4953523;28;20561;-93
2022/05/20 09:22:39;;;;;;;5.30;4.23;;;27.30;91.90;;;;;;4955357;28;20494;-92
2022/05/20 09:25:10;;;;;;;5.60;5.10;;;27.40;90.40;;;;;;4951792;28;20464;-94
2022/05/20 09:27:37;;;;;;;5.70;5.20;;;27.50;91.40;;;;;;4955241;28;20544;-95
2022/05/20 09:30:12;;;;;;;6.73;5.43;;;27.50;89.70;;;;;;4955741;28;20845;-93
2022/05/20 09:32:39;;;;;;;6.03;5.40;;;27.70;90.20;;;;;;4956869;28;20503;-96
2022/05/20 09:35:11;;;;;;;8.10;5.23;;;27.80;89.40;;;;;;4955569;28;20447;-93
2022/05/20 09:37:39;;;;;;;5.30;4.80;;;28.00;86.50;;;;;;4955782;28;20479;-92
2022/05/20 09:40:31;;;;;;;5.53;5.03;;;28.00;84.90;;;;;;4938708;29;20466;-94
2022/05/20 09:43:00;;;;;;;5.93;5.07;;;27.90;87.60;;;;;;4940864;29;20542;-92
2022/05/20 09:45:26;;;;;;;5.50;4.50;;;28.10;85.30;;;;;;4952420;28;20463;-94
2022/05/20 09:47:55;;;;;;;5.40;4.90;;;28.20;82.60;;;;;;4956187;28;20447;-92
2022/05/20 09:50:33;;;;;;;5.17;4.67;;;28.20;82.10;;;;;;4934399;29;22041;-93
2022/05/20 09:54:02;;;;;;;6.23;5.13;;;28.20;82.00;;;;;;4926473;29;20995;-93
2022/05/20 09:56:30;;;;;;;5.67;5.17;;;28.50;81.30;;;;;;4938373;29;20525;-94
2022/05/20 09:59:36;;;;;;;7.20;6.00;;;28.50;80.80;;;;;;4953724;28;20435;-95
2022/05/20 10:02:09;;;;;;;5.70;5.20;;;28.80;82.40;;;;;;4953909;28;20493;-94
2022/05/20 10:05:17;;;;;;;5.87;5.33;;;28.90;81.30;;;;;;4934754;29;20832;-94
2022/05/20 10:07:45;;;;;;;5.60;5.10;;;29.00;79.90;;;;;;4954131;28;20503;-94
2022/05/20 10:10:29;;;;;;;7.20;5.30;;;29.00;78.90;;;;;;4956086;28;20857;-93
2022/05/20 10:12:57;;;;;;;6.93;5.17;;;28.80;79.10;;;;;;4936423;29;20440;-94
2022/05/20 10:15:42;;;;;;;5.23;4.83;;;28.90;78.90;;;;;;4939514;28;20527;-94
2022/05/20 10:18:32;;;;;;;5.57;5.17;;;28.70;78.10;;;;;;4934181;29;20444;-95
2022/05/20 10:21:19;;;;;;;6.07;5.20;;;28.90;77.90;;;;;;4928916;29;20439;-95
2022/05/20 10:24:03;;;;;;;6.43;4.73;;;29.00;77.90;;;;;;4941068;29;20521;-94
2022/05/20 10:26:49;;;;;;;5.13;4.70;;;29.10;77.10;;;;;;4953435;28;20463;-94
2022/05/20 10:32:43;;;;;;;8.40;5.40;;;29.30;76.00;;;;;;4941112;29;20411;-95
2022/05/20 10:35:22;;;;;;;5.30;4.90;;;29.30;77.00;;;;;;4954865;28;20440;-95
2022/05/20 10:38:01;;;;;;;6.97;4.70;;;29.50;75.20;;;;;;4955204;28;20443;-94
2022/05/20 10:40:45;;;;;;;6.63;5.00;;;29.60;73.70;;;;;;4952705;28;20450;-93
2022/05/20 10:50:01;;;;;;;5.40;4.70;;;30.00;73.50;;;;;;4938332;29;20437;-94
2022/05/20 10:52:53;;;;;;;6.23;4.47;;;30.30;73.10;;;;;;4937552;29;20499;-95
2022/05/20 10:55:28;;;;;;;4.60;4.20;;;30.50;72.70;;;;;;4937895;29;20439;-93
2022/05/20 10:58:41;;;;;;;4.97;4.43;;;30.50;70.90;;;;;;4954515;28;20447;-94
2022/05/20 11:01:20;;;;;;;6.90;4.87;;;30.30;69.70;;;;;;4951494;28;20580;-94
2022/05/20 11:04:04;;;;;;;5.83;5.30;;;30.30;69.20;;;;;;4952293;28;20798;-94
2022/05/20 11:06:42;;;;;;;5.67;4.47;;;30.50;67.50;;;;;;4953677;28;20432;-93
2022/05/20 11:09:57;;;;;;;4.30;3.90;;;30.30;65.80;;;;;;4954792;28;20450;-95
2022/05/20 11:12:52;;;;;;;6.80;4.23;;;30.20;64.70;;;;;;4938283;28;20440;-94
2022/05/20 11:15:55;;;;;;;4.60;4.10;;;30.40;66.10;;;;;;4953198;28;20463;-95
2022/05/20 11:18:23;;;;;;;5.10;4.70;;;30.50;63.90;;;;;;4908703;29;20446;-95
2022/05/20 11:21:09;;;;;;;6.47;4.20;;;30.30;63.20;;;;;;4952790;28;20443;-93
2022/05/20 11:24:04;;;;;;;5.07;4.10;;;30.50;63.90;;;;;;4940144;29;20458;-94
2022/05/20 11:26:45;;;;;;;4.83;4.33;;;30.90;62.60;;;;;;4954205;28;20680;-93
2022/05/20 11:29:37;;;;;;;8.00;4.37;;;31.10;63.20;;;;;;4950467;28;20501;-92
2022/05/20 11:32:37;;;;;;;5.40;4.23;;;31.50;62.50;;;;;;4935806;28;20435;-92
2022/05/20 11:35:32;;;;;;;4.43;4.03;;;31.30;61.10;;;;;;4950775;28;20523;-94
2022/05/20 11:38:36;;;;;;;4.60;4.20;;;31.40;60.10;;;;;;4951305;28;21019;-94
2022/05/20 11:41:40;;;;;;;5.87;4.00;;;31.40;59.20;;;;;;4935522;29;21082;-94
2022/05/20 11:44:39;;;;;;;6.87;4.10;;;31.40;58.10;;;;;;4950552;28;20956;-94
2022/05/20 11:47:32;;;;;;;6.50;3.73;;;31.60;58.90;;;;;;4936577;29;20448;-94
2022/05/20 11:50:04;;;;;;;4.73;4.17;;;32.00;58.00;;;;;;4952071;28;20420;-92
2022/05/20 11:52:35;;;;;;;6.80;4.13;;;32.20;55.90;;;;;;4953447;28;20450;-91
2022/05/20 11:55:16;;;;;;;4.70;3.90;;;31.80;56.60;;;;;;4952046;28;20475;-92
2022/05/20 11:58:15;;;;;;;4.90;3.73;;;31.60;56.10;;;;;;4951907;28;20474;-92
2022/05/20 12:00:42;;;;;;;5.70;3.50;;;31.70;56.10;;;;;;4938118;28;20467;-93
2022/05/20 12:03:16;;;;;;;4.73;4.03;;;31.80;56.30;;;;;;4953151;28;20985;-92
2022/05/20 12:05:46;;;;;;;8.43;3.90;;;31.80;54.80;;;;;;4952316;28;20499;-93
2022/05/20 12:08:40;;;;;;;5.40;3.80;;;32.00;56.20;;;;;;4951473;28;20772;-93
2022/05/20 12:11:25;;;;;;;6.00;3.93;;;32.10;55.50;;;;;;4952231;28;21320;-92
2022/05/20 12:14:20;;;;;;;4.77;4.20;;;31.80;54.60;;;;;;4950745;28;20438;-91
2022/05/20 12:17:01;;;;;;;6.60;4.93;;;31.60;55.40;;;;;;4921435;28;20526;-94
2022/05/20 12:25:34;;;;;;;4.43;3.83;;;32.10;57.20;;;;;;4938938;29;20446;-93
2022/05/20 12:28:28;;;;;;;3.90;3.60;;;32.30;53.90;;;;;;4951259;28;20446;-92
2022/05/20 12:31:24;;;;;;;4.20;3.80;;;32.20;54.40;;;;;;4952005;28;20478;-93
2022/05/20 12:34:23;;;;;;;5.67;3.60;;;32.30;52.30;;;;;;4951698;28;20527;-93
2022/05/20 12:36:49;;;;;;;8.83;4.97;;;32.30;52.00;;;;;;4904942;29;20800;-93
2022/05/20 12:39:51;;;;;;;6.63;4.40;;;32.20;52.00;;;;;;4949147;28;20447;-93
2022/05/20 12:42:22;;;;;;;9.67;4.40;;;32.20;52.60;;;;;;4927919;29;20300;-92
2022/05/20 12:44:48;;;;;;;6.80;4.00;;;32.40;51.50;;;;;;4936227;29;20510;-94
2022/05/20 12:47:39;;;;;;;6.10;4.00;;;32.20;52.10;;;;;;4925217;29;21009;-89
2022/05/20 13:00:51;;;;;;;5.17;3.70;;;32.80;50.90;;;;;;5265317;23;20530;-95
2022/05/20 13:03:43;;;;;;;5.53;3.40;;;32.70;51.90;;;;;;4920124;29;20851;-96
2022/05/20 13:06:44;;;;;;;7.20;4.43;;;32.80;52.30;;;;;;5139573;23;20440;-96
2022/05/20 13:12:04;;;;;;;4.07;3.50;;;32.70;50.60;;;;;;5490424;23;20527;-95
2022/05/20 13:14:30;;;;;;;7.87;4.10;;;33.00;50.80;;;;;;5265429;23;20502;-96
2022/05/20 13:16:58;;;;;;;7.67;3.93;;;33.00;49.90;;;;;;5413817;23;20494;-95
2022/05/20 13:19:53;;;;;;;4.10;3.70;;;33.30;50.60;;;;;;4914015;29;20455;-95
2022/05/20 13:22:22;;;;;;;30.80;28.80;;;33.50;50.40;;;;;;4936179;29;20797;-93
2022/05/20 13:24:54;;;;;;;12.43;11.30;;;33.50;49.60;;;;;;4906190;29;20480;-94
2022/05/20 13:27:29;;;;;;;5.63;5.13;;;33.50;49.40;;;;;;4942895;28;20462;-94
2022/05/20 13:30:21;;;;;;;6.10;5.60;;;33.40;48.60;;;;;;4943367;28;20438;-93
2022/05/20 13:40:43;;;;;;;4.03;3.63;;;34.10;48.40;;;;;;5788815;23;20559;-96
2022/05/20 13:43:15;;;;;;;6.00;3.63;;;33.90;48.10;;;;;;4936331;28;20524;-95
2022/05/20 13:51:37;;;;;;;3.83;3.43;;;34.00;49.30;;;;;;4953750;28;20577;-96
2022/05/20 13:54:51;;;;;;;5.13;3.83;;;34.80;47.70;;;;;;4967311;28;20815;-96
2022/05/20 13:57:44;;;;;;;5.87;3.63;;;35.70;47.00;;;;;;4962943;28;20470;-94
2022/05/20 14:00:35;;;;;;;5.70;4.87;;;36.90;46.60;;;;;;4955157;28;20436;-96
2022/05/20 14:03:06;;;;;;;4.10;3.70;;;38.00;42.70;;;;;;4942056;28;20233;-88
2022/05/20 14:05:42;;;;;;;4.57;4.17;;;39.30;43.10;;;;;;4962811;28;20234;-91
2022/05/20 14:08:09;;;;;;;4.63;4.23;;;38.70;41.30;;;;;;4954260;28;20657;-90
2022/05/20 14:10:38;;;;;;;3.90;3.50;;;38.00;43.30;;;;;;4939904;28;20195;-91
2022/05/20 14:13:09;;;;;;;5.50;3.80;;;38.70;43.30;;;;;;4954007;28;20209;-90
2022/05/20 14:15:55;;;;;;;6.50;4.70;;;39.20;43.00;;;;;;4945418;28;20711;-90
2022/05/20 14:18:36;;;;;;;5.87;4.50;;;38.60;40.80;;;;;;4954951;28;20175;-89
2022/05/20 14:21:15;;;;;;;4.53;4.13;;;37.20;43.60;;;;;;4950409;28;20288;-89
2022/05/20 14:23:56;;;;;;;4.57;4.00;;;36.20;45.00;;;;;;4953514;28;20208;-92
2022/05/20 14:26:35;;;;;;;4.30;4.00;;;34.30;47.00;;;;;;4941118;28;20445;-94
2022/05/20 14:29:03;;;;;;;4.57;4.17;;;33.60;49.70;;;;;;4942811;28;20451;-89
2022/05/20 14:31:43;;;;;;;8.93;5.73;;;33.00;50.70;;;;;;4951226;28;20460;-90
2022/05/20 14:34:20;;;;;;;4.87;4.40;;;32.70;52.30;;;;;;4956735;28;20524;-91
2022/05/20 14:36:50;;;;;;;6.03;4.30;;;32.50;52.40;;;;;;4935784;28;20481;-88
2022/05/20 14:39:21;;;;;;;5.13;4.37;;;32.40;52.70;;;;;;4938834;28;20450;-88
2022/05/20 14:42:07;;;;;;;4.93;4.63;;;32.10;52.90;;;;;;4955500;28;20735;-91
2022/05/20 14:45:26;;;;;;;6.63;5.00;;;31.70;53.20;;;;;;4967911;28;20461;-96
2022/05/20 15:21:23;;;;;;;8.80;5.60;;;32.00;62.00;;;;;;3497476;23;20850;-94
2022/05/20 15:23:58;;;;;;;8.93;5.50;;;32.50;59.10;;;;;;4930530;29;20471;-96
2022/05/20 15:26:32;;;;;;;6.03;5.50;;;33.20;55.80;;;;;;4925036;29;21246;-96
2022/05/20 15:28:59;;;;;;;6.00;5.40;;;33.70;55.90;;;;;;4930176;29;20446;-94
2022/05/20 15:34:52;;;;;;;5.77;5.17;;;33.00;55.30;;;;;;4936429;29;20445;-96
2022/05/20 15:37:25;;;;;;;8.70;4.77;;;32.40;56.20;;;;;;4943001;28;21214;-95
2022/05/20 15:39:59;;;;;;;6.20;5.03;;;33.20;56.40;;;;;;4921011;29;20431;-95
2022/05/20 15:42:25;;;;;;;5.43;4.50;;;34.10;53.20;;;;;;4919013;29;20586;-96
2022/05/20 15:44:52;;;;;;;7.73;4.73;;;33.40;52.90;;;;;;4900631;29;20534;-93
2022/05/20 15:47:19;;;;;;;5.93;5.40;;;34.10;53.50;;;;;;4910712;29;20440;-92
2022/05/20 15:49:45;;;;;;;10.57;5.77;;;32.90;54.10;;;;;;4913930;29;20442;-92
2022/05/20 15:52:13;;;;;;;10.93;5.27;;;32.60;55.30;;;;;;4920656;29;20447;-92
2022/05/20 15:55:05;;;;;;;8.10;5.17;;;31.40;55.90;;;;;;4922631;28;20727;-92
2022/05/20 15:57:35;;;;;;;5.20;4.80;;;30.10;59.30;;;;;;4926745;29;20444;-93
2022/05/20 16:00:02;;;;;;;6.37;5.53;;;28.70;62.00;;;;;;4922789;29;20427;-92